sensor_id;sensor_type;location;lat;lon;timestamp;pressure;altitude;pressure_sealevel;temperature;humidity
54146;BME280;40052;49.422;7.738;2022-07-09T00:01:03;74942.09;;;-145.25;56.81
54146;BME280;40052;49.422;7.738;2022-07-09T00:03:29;74946.09;;;-145.25;57.32
54146;BME280;40052;49.422;7.738;2022-07-09T00:05:54;74964.13;;;-145.25;57.68
54146;BME280;40052;49.422;7.738;2022-07-09T00:08:22;74968.16;;;-145.25;57.70
54146;BME280;40052;49.422;7.738;2022-07-09T00:10:47;74974.16;;;-145.25;57.85
54146;BME280;40052;49.422;7.738;2022-07-09T00:13:15;74974.16;;;-145.25;58.09
54146;BME280;40052;49.422;7.738;2022-07-09T00:15:43;74976.16;;;-145.25;58.15
54146;BME280;40052;49.422;7.738;2022-07-09T00:18:08;74988.19;;;-145.25;58.15
54146;BME280;40052;49.422;7.738;2022-07-09T00:20:36;74996.19;;;-145.25;58.76
54146;BME280;40052;49.422;7.738;2022-07-09T00:23:04;74998.22;;;-145.25;58.71
54146;BME280;40052;49.422;7.738;2022-07-09T00:25:29;75000.22;;;-145.25;58.91
54146;BME280;40052;49.422;7.738;2022-07-09T00:27:55;75010.22;;;-145.25;59.04
54146;BME280;40052;49.422;7.738;2022-07-09T00:30:20;74998.22;;;-145.25;58.86
54146;BME280;40052;49.422;7.738;2022-07-09T00:32:51;74974.16;;;-145.25;58.64
54146;BME280;40052;49.422;7.738;2022-07-09T00:35:19;74950.09;;;-145.25;57.93
54146;BME280;40052;49.422;7.738;2022-07-09T00:37:46;74950.09;;;-145.25;57.64
54146;BME280;40052;49.422;7.738;2022-07-09T00:40:12;74996.19;;;-145.25;58.68
54146;BME280;40052;49.422;7.738;2022-07-09T00:42:37;74978.16;;;-145.25;58.71
54146;BME280;40052;49.422;7.738;2022-07-09T00:45:03;74992.19;;;-145.25;58.90
54146;BME280;40052;49.422;7.738;2022-07-09T00:47:28;75010.22;;;-145.25;59.12
54146;BME280;40052;49.422;7.738;2022-07-09T00:49:54;75016.25;;;-145.25;59.36
54146;BME280;40052;49.422;7.738;2022-07-09T00:52:20;75016.25;;;-145.25;59.43
54146;BME280;40052;49.422;7.738;2022-07-09T00:54:45;75014.25;;;-145.25;59.43
54146;BME280;40052;49.422;7.738;2022-07-09T00:57:11;75010.22;;;-145.25;59.46
54146;BME280;40052;49.422;7.738;2022-07-09T00:59:40;74998.22;;;-145.25;59.27
54146;BME280;40052;49.422;7.738;2022-07-09T01:02:11;74986.19;;;-145.25;59.08
54146;BME280;40052;49.422;7.738;2022-07-09T01:04:36;74974.16;;;-145.25;58.96
54146;BME280;40052;49.422;7.738;2022-07-09T01:07:03;74958.13;;;-145.25;58.12
54146;BME280;40052;49.422;7.738;2022-07-09T01:09:28;74966.13;;;-145.25;58.24
54146;BME280;40052;49.422;7.738;2022-07-09T01:11:55;74998.22;;;-145.25;58.87
54146;BME280;40052;49.422;7.738;2022-07-09T01:14:24;75018.25;;;-145.25;59.56
54146;BME280;40052;49.422;7.738;2022-07-09T01:16:58;75040.28;;;-145.25;60.02
54146;BME280;40052;49.422;7.738;2022-07-09T01:19:27;75040.28;;;-145.25;60.55
54146;BME280;40052;49.422;7.738;2022-07-09T01:21:53;75036.28;;;-145.25;60.56
54146;BME280;40052;49.422;7.738;2022-07-09T01:24:21;75012.22;;;-145.25;59.99
54146;BME280;40052;49.422;7.738;2022-07-09T01:26:48;74994.19;;;-145.25;59.64
54146;BME280;40052;49.422;7.738;2022-07-09T01:29:14;75018.25;;;-145.25;59.74
54146;BME280;40052;49.422;7.738;2022-07-09T01:31:39;75050.31;;;-145.25;60.46
54146;BME280;40052;49.422;7.738;2022-07-09T01:34:04;75068.34;;;-145.25;61.28
54146;BME280;40052;49.422;7.738;2022-07-09T01:36:32;75066.34;;;-145.25;61.24
54146;BME280;40052;49.422;7.738;2022-07-09T01:39:00;75056.31;;;-145.25;61.56
54146;BME280;40052;49.422;7.738;2022-07-09T01:41:28;75054.31;;;-145.25;61.61
54146;BME280;40052;49.422;7.738;2022-07-09T01:43:56;75066.34;;;-145.25;61.88
54146;BME280;40052;49.422;7.738;2022-07-09T01:46:22;75070.34;;;-145.25;61.84
54146;BME280;40052;49.422;7.738;2022-07-09T01:48:49;75052.31;;;-145.25;61.66
54146;BME280;40052;49.422;7.738;2022-07-09T01:51:15;75048.31;;;-145.25;61.35
54146;BME280;40052;49.422;7.738;2022-07-09T01:53:40;75062.34;;;-145.25;61.81
54146;BME280;40052;49.422;7.738;2022-07-09T01:56:07;75062.34;;;-145.25;61.72
54146;BME280;40052;49.422;7.738;2022-07-09T01:58:37;75054.31;;;-145.25;61.58
54146;BME280;40052;49.422;7.738;2022-07-09T02:01:06;75068.34;;;-145.25;61.32
54146;BME280;40052;49.422;7.738;2022-07-09T02:03:31;75082.38;;;-145.25;62.05
54146;BME280;40052;49.422;7.738;2022-07-09T02:05:59;75074.38;;;-145.25;61.66
54146;BME280;40052;49.422;7.738;2022-07-09T02:08:27;75054.31;;;-145.25;60.58
54146;BME280;40052;49.422;7.738;2022-07-09T02:10:52;75048.31;;;-145.25;61.19
54146;BME280;40052;49.422;7.738;2022-07-09T02:13:19;75062.34;;;-145.25;61.73
54146;BME280;40052;49.422;7.738;2022-07-09T02:15:47;75074.38;;;-145.25;61.79
54146;BME280;40052;49.422;7.738;2022-07-09T02:18:15;75072.34;;;-145.25;62.10
54146;BME280;40052;49.422;7.738;2022-07-09T02:20:40;75066.34;;;-145.25;61.99
54146;BME280;40052;49.422;7.738;2022-07-09T02:23:05;75060.34;;;-145.25;61.85
54146;BME280;40052;49.422;7.738;2022-07-09T02:25:34;75062.34;;;-145.25;61.72
54146;BME280;40052;49.422;7.738;2022-07-09T02:27:59;75046.31;;;-145.25;61.15
54146;BME280;40052;49.422;7.738;2022-07-09T02:30:25;75048.31;;;-145.25;61.07
54146;BME280;40052;49.422;7.738;2022-07-09T02:32:50;75066.34;;;-145.25;60.98
54146;BME280;40052;49.422;7.738;2022-07-09T02:35:15;75052.31;;;-145.25;60.58
54146;BME280;40052;49.422;7.738;2022-07-09T02:37:43;75094.41;;;-145.25;60.78
54146;BME280;40052;49.422;7.738;2022-07-09T02:40:11;75114.44;;;-145.25;61.72
54146;BME280;40052;49.422;7.738;2022-07-09T02:42:39;75146.50;;;-145.25;63.10
54146;BME280;40052;49.422;7.738;2022-07-09T02:45:05;75156.53;;;-145.25;63.10
54146;BME280;40052;49.422;7.738;2022-07-09T02:47:31;75152.53;;;-145.25;63.05
54146;BME280;40052;49.422;7.738;2022-07-09T02:49:56;75150.53;;;-145.25;63.40
54146;BME280;40052;49.422;7.738;2022-07-09T02:52:24;75150.53;;;-145.25;63.33
54146;BME280;40052;49.422;7.738;2022-07-09T02:54:52;75138.50;;;-145.25;63.48
54146;BME280;40052;49.422;7.738;2022-07-09T02:57:17;75142.50;;;-145.25;63.58
54146;BME280;40052;49.422;7.738;2022-07-09T02:59:45;75142.50;;;-145.25;63.40
54146;BME280;40052;49.422;7.738;2022-07-09T03:02:10;75156.53;;;-145.25;63.40
54146;BME280;40052;49.422;7.738;2022-07-09T03:04:38;75154.53;;;-145.25;63.16
54146;BME280;40052;49.422;7.738;2022-07-09T03:07:04;75152.53;;;-145.25;63.36
54146;BME280;40052;49.422;7.738;2022-07-09T03:09:29;75166.56;;;-145.25;63.49
54146;BME280;40052;49.422;7.738;2022-07-09T03:11:57;75184.59;;;-145.25;64.09
54146;BME280;40052;49.422;7.738;2022-07-09T03:14:22;75190.59;;;-145.25;64.65
54146;BME280;40052;49.422;7.738;2022-07-09T03:16:48;75208.66;;;-145.25;65.25
54146;BME280;40052;49.422;7.738;2022-07-09T03:19:13;75218.66;;;-145.25;65.50
54146;BME280;40052;49.422;7.738;2022-07-09T03:21:41;75192.59;;;-145.25;64.99
54146;BME280;40052;49.422;7.738;2022-07-09T03:24:07;75162.53;;;-145.25;64.63
54146;BME280;40052;49.422;7.738;2022-07-09T03:26:36;75188.59;;;-145.25;64.85
54146;BME280;40052;49.422;7.738;2022-07-09T03:29:01;75196.63;;;-145.25;65.03
54146;BME280;40052;49.422;7.738;2022-07-09T03:31:26;75196.63;;;-145.25;65.16
54146;BME280;40052;49.422;7.738;2022-07-09T03:33:52;75182.59;;;-145.25;65.15
54146;BME280;40052;49.422;7.738;2022-07-09T03:36:19;75184.59;;;-145.25;64.78
54146;BME280;40052;49.422;7.738;2022-07-09T03:38:44;75208.66;;;-145.25;65.36
54146;BME280;40052;49.422;7.738;2022-07-09T03:41:12;75210.66;;;-145.25;64.89
54146;BME280;40052;49.422;7.738;2022-07-09T03:43:37;75192.59;;;-145.25;64.65
54146;BME280;40052;49.422;7.738;2022-07-09T03:46:05;75202.63;;;-145.25;65.39
54146;BME280;40052;49.422;7.738;2022-07-09T03:48:31;75198.63;;;-145.25;66.66
54146;BME280;40052;49.422;7.738;2022-07-09T03:50:59;75200.63;;;-145.25;66.61
54146;BME280;40052;49.422;7.738;2022-07-09T03:53:24;75194.63;;;-145.25;66.26
54146;BME280;40052;49.422;7.738;2022-07-09T03:55:50;75182.59;;;-145.25;65.45
54146;BME280;40052;49.422;7.738;2022-07-09T03:58:15;75202.63;;;-145.25;65.48
54146;BME280;40052;49.422;7.738;2022-07-09T04:00:43;75200.63;;;-145.25;65.44
54146;BME280;40052;49.422;7.738;2022-07-09T04:03:08;75210.66;;;-145.25;65.23
54146;BME280;40052;49.422;7.738;2022-07-09T04:05:38;75234.69;;;-145.25;66.60
54146;BME280;40052;49.422;7.738;2022-07-09T04:08:04;75224.69;;;-145.25;66.69
54146;BME280;40052;49.422;7.738;2022-07-09T04:10:29;75226.69;;;-145.25;66.37
54146;BME280;40052;49.422;7.738;2022-07-09T04:12:55;75236.69;;;-145.25;67.00
54146;BME280;40052;49.422;7.738;2022-07-09T04:15:23;75240.72;;;-145.25;67.50
54146;BME280;40052;49.422;7.738;2022-07-09T04:17:48;75244.72;;;-145.25;67.59
54146;BME280;40052;49.422;7.738;2022-07-09T04:20:14;75238.72;;;-145.25;67.82
54146;BME280;40052;49.422;7.738;2022-07-09T04:22:39;75238.72;;;-145.25;67.82
54146;BME280;40052;49.422;7.738;2022-07-09T04:25:05;75226.69;;;-145.25;67.50
54146;BME280;40052;49.422;7.738;2022-07-09T04:27:30;75202.63;;;-145.25;66.93
54146;BME280;40052;49.422;7.738;2022-07-09T04:29:59;75192.59;;;-145.25;65.72
54146;BME280;40052;49.422;7.738;2022-07-09T04:32:24;75176.56;;;-145.25;65.34
54146;BME280;40052;49.422;7.738;2022-07-09T04:34:50;75164.56;;;-145.25;65.07
54146;BME280;40052;49.422;7.738;2022-07-09T04:37:15;75148.50;;;-145.25;64.98
54146;BME280;40052;49.422;7.738;2022-07-09T04:39:43;75150.53;;;-145.25;65.02
54146;BME280;40052;49.422;7.738;2022-07-09T04:42:08;75156.53;;;-145.25;65.70
54146;BME280;40052;49.422;7.738;2022-07-09T04:44:37;75182.59;;;-145.25;66.58
54146;BME280;40052;49.422;7.738;2022-07-09T04:47:02;75168.56;;;-145.25;65.96
54146;BME280;40052;49.422;7.738;2022-07-09T04:49:28;75150.53;;;-145.25;65.57
54146;BME280;40052;49.422;7.738;2022-07-09T04:51:56;75132.47;;;-145.25;65.02
54146;BME280;40052;49.422;7.738;2022-07-09T04:54:21;75122.47;;;-145.25;64.80
54146;BME280;40052;49.422;7.738;2022-07-09T04:56:47;75118.44;;;-145.25;64.52
54146;BME280;40052;49.422;7.738;2022-07-09T04:59:14;75112.44;;;-145.25;64.33
54146;BME280;40052;49.422;7.738;2022-07-09T05:01:42;75136.50;;;-145.25;64.84
54146;BME280;40052;49.422;7.738;2022-07-09T05:04:07;75132.47;;;-145.25;65.37
54146;BME280;40052;49.422;7.738;2022-07-09T05:06:33;75128.47;;;-145.25;65.09
54146;BME280;40052;49.422;7.738;2022-07-09T05:09:02;75108.44;;;-145.25;64.64
54146;BME280;40052;49.422;7.738;2022-07-09T05:11:28;75088.41;;;-145.25;64.66
54146;BME280;40052;49.422;7.738;2022-07-09T05:13:56;75076.38;;;-145.25;64.59
54146;BME280;40052;49.422;7.738;2022-07-09T05:16:21;75056.31;;;-145.25;64.25
54146;BME280;40052;49.422;7.738;2022-07-09T05:18:49;75026.25;;;-145.25;63.76
54146;BME280;40052;49.422;7.738;2022-07-09T05:21:17;75028.25;;;-145.25;63.76
54146;BME280;40052;49.422;7.738;2022-07-09T05:23:42;75040.28;;;-145.25;63.93
54146;BME280;40052;49.422;7.738;2022-07-09T05:26:08;75040.28;;;-145.25;64.03
54146;BME280;40052;49.422;7.738;2022-07-09T05:28:33;75036.28;;;-145.25;64.23
54146;BME280;40052;49.422;7.738;2022-07-09T05:30:59;75024.25;;;-145.25;63.96
54146;BME280;40052;49.422;7.738;2022-07-09T05:33:27;75022.25;;;-145.25;63.90
54146;BME280;40052;49.422;7.738;2022-07-09T05:35:54;74990.19;;;-145.25;63.36
54146;BME280;40052;49.422;7.738;2022-07-09T05:38:20;74984.19;;;-145.25;63.37
54146;BME280;40052;49.422;7.738;2022-07-09T05:40:46;74968.16;;;-145.25;63.31
54146;BME280;40052;49.422;7.738;2022-07-09T05:43:11;74934.06;;;-145.25;62.79
54146;BME280;40052;49.422;7.738;2022-07-09T05:45:37;74922.06;;;-145.25;62.63
54146;BME280;40052;49.422;7.738;2022-07-09T05:48:04;74910.03;;;-145.25;62.65
54146;BME280;40052;49.422;7.738;2022-07-09T05:50:32;74904.00;;;-145.25;62.47
54146;BME280;40052;49.422;7.738;2022-07-09T05:52:57;74894.00;;;-145.25;62.05
54146;BME280;40052;49.422;7.738;2022-07-09T05:55:23;74896.00;;;-145.25;62.98
54146;BME280;40052;49.422;7.738;2022-07-09T05:57:51;74873.94;;;-145.25;62.20
54146;BME280;40052;49.422;7.738;2022-07-09T06:00:16;74873.94;;;-145.25;62.13
54146;BME280;40052;49.422;7.738;2022-07-09T06:02:42;74863.94;;;-145.25;61.91
54146;BME280;40052;49.422;7.738;2022-07-09T06:05:08;74855.91;;;-145.25;62.16
54146;BME280;40052;49.422;7.738;2022-07-09T06:07:33;74881.97;;;-145.25;62.34
54146;BME280;40052;49.422;7.738;2022-07-09T06:09:59;74889.97;;;-145.25;62.33
54146;BME280;40052;49.422;7.738;2022-07-09T06:12:24;74883.97;;;-145.25;62.59
54146;BME280;40052;49.422;7.738;2022-07-09T06:14:50;74843.88;;;-145.25;61.93
54146;BME280;40052;49.422;7.738;2022-07-09T06:17:15;74843.88;;;-145.25;61.62
54146;BME280;40052;49.422;7.738;2022-07-09T06:19:40;74843.88;;;-145.25;61.75
54146;BME280;40052;49.422;7.738;2022-07-09T06:22:06;74823.84;;;-145.25;61.60
54146;BME280;40052;49.422;7.738;2022-07-09T06:24:31;74833.88;;;-145.25;61.81
54146;BME280;40052;49.422;7.738;2022-07-09T06:26:57;74817.84;;;-145.25;61.66
54146;BME280;40052;49.422;7.738;2022-07-09T06:29:22;74795.78;;;-145.25;61.43
54146;BME280;40052;49.422;7.738;2022-07-09T06:31:47;74795.78;;;-145.25;61.40
54146;BME280;40052;49.422;7.738;2022-07-09T06:34:13;74779.75;;;-145.25;61.27
54146;BME280;40052;49.422;7.738;2022-07-09T06:36:39;74777.75;;;-145.25;60.81
54146;BME280;40052;49.422;7.738;2022-07-09T06:39:09;74771.75;;;-145.25;60.88
54146;BME280;40052;49.422;7.738;2022-07-09T06:41:53;74753.72;;;-145.25;60.34
54146;BME280;40052;49.422;7.738;2022-07-09T06:44:23;74741.69;;;-145.25;60.63
54146;BME280;40052;49.422;7.738;2022-07-09T06:46:51;74737.69;;;-145.25;60.34
54146;BME280;40052;49.422;7.738;2022-07-09T06:49:16;74727.66;;;-145.25;60.26
54146;BME280;40052;49.422;7.738;2022-07-09T06:51:48;74705.63;;;-145.25;60.28
54146;BME280;40052;49.422;7.738;2022-07-09T06:54:13;74693.59;;;-145.25;59.70
54146;BME280;40052;49.422;7.738;2022-07-09T06:56:39;74679.56;;;-145.25;59.42
54146;BME280;40052;49.422;7.738;2022-07-09T06:59:04;74663.53;;;-145.25;59.21
54146;BME280;40052;49.422;7.738;2022-07-09T07:01:32;74637.47;;;-145.25;57.97
54146;BME280;40052;49.422;7.738;2022-07-09T07:03:58;74637.47;;;-145.25;58.52
54146;BME280;40052;49.422;7.738;2022-07-09T07:06:23;74635.47;;;-145.25;57.98
54146;BME280;40052;49.422;7.738;2022-07-09T07:08:48;74627.47;;;-145.25;58.47
54146;BME280;40052;49.422;7.738;2022-07-09T07:11:14;74609.41;;;-145.25;57.79
54146;BME280;40052;49.422;7.738;2022-07-09T07:13:39;74603.41;;;-145.25;57.32
54146;BME280;40052;49.422;7.738;2022-07-09T07:16:07;74593.38;;;-145.25;57.12
54146;BME280;40052;49.422;7.738;2022-07-09T07:18:33;74587.38;;;-145.25;57.30
54146;BME280;40052;49.422;7.738;2022-07-09T07:20:58;74551.31;;;-145.25;56.87
54146;BME280;40052;49.422;7.738;2022-07-09T07:23:24;74533.28;;;-145.25;56.16
54146;BME280;40052;49.422;7.738;2022-07-09T07:25:49;74509.22;;;-145.25;55.13
54146;BME280;40052;49.422;7.738;2022-07-09T07:28:14;74501.22;;;-145.25;54.83
54146;BME280;40052;49.422;7.738;2022-07-09T07:30:40;74485.19;;;-145.25;54.83
54146;BME280;40052;49.422;7.738;2022-07-09T07:33:05;74477.16;;;-145.25;54.42
54146;BME280;40052;49.422;7.738;2022-07-09T07:35:31;74467.16;;;-145.25;53.96
54146;BME280;40052;49.422;7.738;2022-07-09T07:37:58;74465.13;;;-145.25;53.46
54146;BME280;40052;49.422;7.738;2022-07-09T07:40:27;74451.13;;;-145.25;53.74
54146;BME280;40052;49.422;7.738;2022-07-09T07:42:54;74439.09;;;-145.25;53.76
54146;BME280;40052;49.422;7.738;2022-07-09T07:45:20;74419.06;;;-145.25;53.11
54146;BME280;40052;49.422;7.738;2022-07-09T07:47:45;74405.03;;;-145.25;52.13
54146;BME280;40052;49.422;7.738;2022-07-09T07:50:11;74364.94;;;-145.25;51.15
54146;BME280;40052;49.422;7.738;2022-07-09T07:52:36;74350.94;;;-145.25;51.27
54146;BME280;40052;49.422;7.738;2022-07-09T07:55:02;74342.91;;;-145.25;51.09
54146;BME280;40052;49.422;7.738;2022-07-09T07:57:29;74322.88;;;-145.25;50.35
54146;BME280;40052;49.422;7.738;2022-07-09T07:59:57;74312.84;;;-145.25;49.56
54146;BME280;40052;49.422;7.738;2022-07-09T08:02:27;74274.78;;;-145.25;48.80
54146;BME280;40052;49.422;7.738;2022-07-09T08:04:57;74262.75;;;-145.25;48.39
54146;BME280;40052;49.422;7.738;2022-07-09T08:07:22;74276.78;;;-145.25;47.88
54146;BME280;40052;49.422;7.738;2022-07-09T08:09:51;74262.75;;;-145.25;47.80
54146;BME280;40052;49.422;7.738;2022-07-09T08:12:16;74262.75;;;-145.25;48.10
54146;BME280;40052;49.422;7.738;2022-07-09T08:14:42;74254.75;;;-145.25;47.95
54146;BME280;40052;49.422;7.738;2022-07-09T08:17:07;74232.69;;;-145.25;47.44
54146;BME280;40052;49.422;7.738;2022-07-09T08:19:33;74218.69;;;-145.25;47.50
54146;BME280;40052;49.422;7.738;2022-07-09T08:21:58;74194.63;;;-145.25;47.44
54146;BME280;40052;49.422;7.738;2022-07-09T08:24:23;74206.66;;;-145.25;45.96
54146;BME280;40052;49.422;7.738;2022-07-09T08:26:49;74184.63;;;-145.25;45.65
54146;BME280;40052;49.422;7.738;2022-07-09T08:29:16;74172.59;;;-145.25;45.64
54146;BME280;40052;49.422;7.738;2022-07-09T08:31:42;74148.53;;;-145.25;45.23
54146;BME280;40052;49.422;7.738;2022-07-09T08:34:07;74148.53;;;-145.25;45.25
54146;BME280;40052;49.422;7.738;2022-07-09T08:36:32;74166.56;;;-145.25;44.79
54146;BME280;40052;49.422;7.738;2022-07-09T08:38:58;74182.59;;;-145.25;45.83
54146;BME280;40052;49.422;7.738;2022-07-09T08:41:23;74178.59;;;-145.25;45.26
54146;BME280;40052;49.422;7.738;2022-07-09T08:43:50;74128.50;;;-145.25;44.99
54146;BME280;40052;49.422;7.738;2022-07-09T08:46:18;74102.47;;;-145.25;43.79
54146;BME280;40052;49.422;7.738;2022-07-09T08:48:45;74084.44;;;-145.25;43.50
54146;BME280;40052;49.422;7.738;2022-07-09T08:51:11;74128.50;;;-145.25;44.25
54146;BME280;40052;49.422;7.738;2022-07-09T08:53:44;74126.50;;;-145.25;44.66
54146;BME280;40052;49.422;7.738;2022-07-09T08:56:11;74124.50;;;-145.25;45.12
54146;BME280;40052;49.422;7.738;2022-07-09T08:58:42;74140.53;;;-145.25;44.80
54146;BME280;40052;49.422;7.738;2022-07-09T09:01:16;74142.53;;;-145.25;45.23
54146;BME280;40052;49.422;7.738;2022-07-09T09:03:47;74146.53;;;-145.25;45.91
54146;BME280;40052;49.422;7.738;2022-07-09T09:06:15;74172.59;;;-145.25;46.08
54146;BME280;40052;49.422;7.738;2022-07-09T09:08:42;74206.66;;;-145.25;45.85
54146;BME280;40052;49.422;7.738;2022-07-09T09:11:13;74166.56;;;-145.25;45.68
54146;BME280;40052;49.422;7.738;2022-07-09T09:13:47;74130.50;;;-145.25;45.14
54146;BME280;40052;49.422;7.738;2022-07-09T09:16:13;74062.38;;;-145.25;44.52
54146;BME280;40052;49.422;7.738;2022-07-09T09:18:51;73998.28;;;-145.25;43.68
54146;BME280;40052;49.422;7.738;2022-07-09T09:21:19;73970.22;;;-145.25;42.61
54146;BME280;40052;49.422;7.738;2022-07-09T09:23:46;73960.19;;;-145.25;42.39
54146;BME280;40052;49.422;7.738;2022-07-09T09:26:15;74034.34;;;-145.25;42.58
54146;BME280;40052;49.422;7.738;2022-07-09T09:28:54;74048.38;;;-145.25;43.33
54146;BME280;40052;49.422;7.738;2022-07-09T09:31:31;74044.34;;;-145.25;44.12
54146;BME280;40052;49.422;7.738;2022-07-09T09:34:19;74046.34;;;-145.25;44.00
54146;BME280;40052;49.422;7.738;2022-07-09T09:36:48;74056.38;;;-145.25;43.48
54146;BME280;40052;49.422;7.738;2022-07-09T09:39:23;74044.34;;;-145.25;43.93
54146;BME280;40052;49.422;7.738;2022-07-09T09:41:50;74046.34;;;-145.25;44.03
54146;BME280;40052;49.422;7.738;2022-07-09T09:44:28;74018.31;;;-145.25;43.84
54146;BME280;40052;49.422;7.738;2022-07-09T09:46:56;73942.16;;;-145.25;42.81
54146;BME280;40052;49.422;7.738;2022-07-09T09:49:25;73930.16;;;-145.25;42.31
54146;BME280;40052;49.422;7.738;2022-07-09T09:52:09;73936.16;;;-145.25;41.95
54146;BME280;40052;49.422;7.738;2022-07-09T09:54:36;73904.09;;;-145.25;41.66
54146;BME280;40052;49.422;7.738;2022-07-09T09:57:11;73908.09;;;-145.25;41.75
54146;BME280;40052;49.422;7.738;2022-07-09T09:59:43;73940.16;;;-145.25;42.47
54146;BME280;40052;49.422;7.738;2022-07-09T10:02:15;73898.09;;;-145.25;42.43
54146;BME280;40052;49.422;7.738;2022-07-09T10:04:43;73880.06;;;-145.25;41.59
54146;BME280;40052;49.422;7.738;2022-07-09T10:07:11;73886.06;;;-145.25;41.49
54146;BME280;40052;49.422;7.738;2022-07-09T10:09:37;73904.09;;;-145.25;41.76
54146;BME280;40052;49.422;7.738;2022-07-09T10:12:08;73914.13;;;-145.25;42.29
54146;BME280;40052;49.422;7.738;2022-07-09T10:14:37;73936.16;;;-145.25;42.23
54146;BME280;40052;49.422;7.738;2022-07-09T10:17:13;73956.19;;;-145.25;42.57
54146;BME280;40052;49.422;7.738;2022-07-09T10:20:08;73980.25;;;-145.25;43.07
54146;BME280;40052;49.422;7.738;2022-07-09T10:22:54;74006.28;;;-145.25;43.28
54146;BME280;40052;49.422;7.738;2022-07-09T10:25:28;74026.31;;;-145.25;43.51
54146;BME280;40052;49.422;7.738;2022-07-09T10:27:54;73986.25;;;-145.25;43.51
54146;BME280;40052;49.422;7.738;2022-07-09T10:30:30;73984.25;;;-145.25;42.63
54146;BME280;40052;49.422;7.738;2022-07-09T10:33:10;73936.16;;;-145.25;42.46
54146;BME280;40052;49.422;7.738;2022-07-09T10:35:49;73876.06;;;-145.25;41.57
54146;BME280;40052;49.422;7.738;2022-07-09T10:38:18;73807.94;;;-145.25;40.74
54146;BME280;40052;49.422;7.738;2022-07-09T10:40:45;73831.97;;;-145.25;41.24
54146;BME280;40052;49.422;7.738;2022-07-09T10:43:12;73827.97;;;-145.25;41.30
54146;BME280;40052;49.422;7.738;2022-07-09T10:48:05;73874.03;;;-145.25;41.76
54146;BME280;40052;49.422;7.738;2022-07-09T10:50:33;73884.06;;;-145.25;41.64
54146;BME280;40052;49.422;7.738;2022-07-09T10:53:01;73844.00;;;-145.25;41.50
54146;BME280;40052;49.422;7.738;2022-07-09T10:55:28;73795.91;;;-145.25;41.28
54146;BME280;40052;49.422;7.738;2022-07-09T10:57:57;73763.84;;;-145.25;40.78
54146;BME280;40052;49.422;7.738;2022-07-09T11:00:24;73701.75;;;-145.25;40.31
54146;BME280;40052;49.422;7.738;2022-07-09T11:05:19;73751.84;;;-145.25;40.97
54146;BME280;40052;49.422;7.738;2022-07-09T11:08:03;73717.78;;;-145.25;39.43
54146;BME280;40052;49.422;7.738;2022-07-09T11:10:32;73707.75;;;-145.25;39.05
54146;BME280;40052;49.422;7.738;2022-07-09T11:13:00;73721.78;;;-145.25;39.14
54146;BME280;40052;49.422;7.738;2022-07-09T11:15:28;73775.88;;;-145.25;39.94
54146;BME280;40052;49.422;7.738;2022-07-09T11:17:54;73755.84;;;-145.25;40.15
54146;BME280;40052;49.422;7.738;2022-07-09T11:20:21;73846.00;;;-145.25;40.67
54146;BME280;40052;49.422;7.738;2022-07-09T11:22:47;73844.00;;;-145.25;40.88
54146;BME280;40052;49.422;7.738;2022-07-09T11:25:14;73852.00;;;-145.25;41.54
54146;BME280;40052;49.422;7.738;2022-07-09T11:27:42;73846.00;;;-145.25;41.57
54146;BME280;40052;49.422;7.738;2022-07-09T11:30:17;73757.84;;;-145.25;40.62
54146;BME280;40052;49.422;7.738;2022-07-09T11:32:45;73719.78;;;-145.25;39.69
54146;BME280;40052;49.422;7.738;2022-07-09T11:35:11;73655.66;;;-145.25;38.90
54146;BME280;40052;49.422;7.738;2022-07-09T11:37:38;73647.66;;;-145.25;39.16
54146;BME280;40052;49.422;7.738;2022-07-09T11:40:04;73597.56;;;-145.25;38.39
54146;BME280;40052;49.422;7.738;2022-07-09T11:42:29;73597.56;;;-145.25;38.85
54146;BME280;40052;49.422;7.738;2022-07-09T11:44:59;73639.63;;;-145.25;39.41
54146;BME280;40052;49.422;7.738;2022-07-09T11:47:36;73705.75;;;-145.25;39.69
54146;BME280;40052;49.422;7.738;2022-07-09T11:50:12;73741.81;;;-145.25;40.26
54146;BME280;40052;49.422;7.738;2022-07-09T11:52:46;73801.91;;;-145.25;40.56
54146;BME280;40052;49.422;7.738;2022-07-09T11:55:15;73741.81;;;-145.25;39.93
54146;BME280;40052;49.422;7.738;2022-07-09T11:57:51;73689.72;;;-145.25;39.69
54146;BME280;40052;49.422;7.738;2022-07-09T12:00:29;73681.72;;;-145.25;39.01
54146;BME280;40052;49.422;7.738;2022-07-09T12:02:56;73729.78;;;-145.25;39.56
54146;BME280;40052;49.422;7.738;2022-07-09T12:05:33;73673.69;;;-145.25;39.15
54146;BME280;40052;49.422;7.738;2022-07-09T12:08:04;73623.59;;;-145.25;38.73
54146;BME280;40052;49.422;7.738;2022-07-09T12:10:34;73579.53;;;-145.25;38.16
54146;BME280;40052;49.422;7.738;2022-07-09T12:13:01;73549.47;;;-145.25;37.88
54146;BME280;40052;49.422;7.738;2022-07-09T12:15:27;73527.44;;;-145.25;37.46
54146;BME280;40052;49.422;7.738;2022-07-09T12:17:58;73485.38;;;-145.25;36.92
54146;BME280;40052;49.422;7.738;2022-07-09T12:20:25;73477.34;;;-145.25;36.51
54146;BME280;40052;49.422;7.738;2022-07-09T12:22:51;73457.31;;;-145.25;36.05
54146;BME280;40052;49.422;7.738;2022-07-09T12:25:20;73491.38;;;-145.25;36.15
54146;BME280;40052;49.422;7.738;2022-07-09T12:27:48;73505.41;;;-145.25;36.33
54146;BME280;40052;49.422;7.738;2022-07-09T12:30:14;73441.31;;;-145.25;35.45
54146;BME280;40052;49.422;7.738;2022-07-09T12:32:40;73437.28;;;-145.25;35.12
54146;BME280;40052;49.422;7.738;2022-07-09T12:35:12;73427.28;;;-145.25;35.21
54146;BME280;40052;49.422;7.738;2022-07-09T12:37:38;73457.31;;;-145.25;35.88
54146;BME280;40052;49.422;7.738;2022-07-09T12:40:05;73473.34;;;-145.25;36.29
54146;BME280;40052;49.422;7.738;2022-07-09T12:42:31;73525.44;;;-145.25;36.11
54146;BME280;40052;49.422;7.738;2022-07-09T12:44:56;73547.47;;;-145.25;36.46
54146;BME280;40052;49.422;7.738;2022-07-09T12:47:21;73571.53;;;-145.25;36.54